createdAt,value
2023-01-27T00:04:54.854Z,-0.27
2023-01-27T00:09:58.269Z,-0.31
2023-01-27T00:15:09.654Z,-0.38
2023-01-27T00:20:12.944Z,-0.49
2023-01-27T00:25:15.147Z,-0.53
2023-01-27T00:30:17.008Z,-0.45
2023-01-27T00:35:19.422Z,-0.37
2023-01-27T00:40:21.297Z,-0.31
2023-01-27T00:45:41.849Z,-0.30
2023-01-27T00:50:43.706Z,-0.36
2023-01-27T00:55:47.330Z,-0.43
2023-01-27T01:00:49.352Z,-0.47
2023-01-27T01:05:52.796Z,-0.40
2023-01-27T01:10:54.631Z,-0.28
2023-01-27T01:15:57.427Z,-0.20
2023-01-27T01:20:59.503Z,-0.25
2023-01-27T01:26:01.255Z,-0.37
2023-01-27T01:31:07.134Z,-0.49
2023-01-27T01:36:12.414Z,-0.53
2023-01-27T01:41:18.356Z,-0.51
2023-01-27T01:46:21.644Z,-0.43
2023-01-27T01:51:34.926Z,-0.43
2023-01-27T01:56:41.056Z,-0.55
2023-01-27T02:01:43.128Z,-0.67
2023-01-27T02:07:11.773Z,-0.78
2023-01-27T02:12:13.580Z,-0.82
2023-01-27T02:17:16.519Z,-0.86
2023-01-27T02:22:44.503Z,-0.87
2023-01-27T02:27:46.266Z,-0.90
2023-01-27T02:32:48.036Z,-0.92
2023-01-27T02:37:51.895Z,-0.95
2023-01-27T02:42:56.682Z,-0.91
2023-01-27T02:47:58.557Z,-0.84
2023-01-27T02:53:00.322Z,-0.78
2023-01-27T02:58:02.359Z,-0.74
2023-01-27T03:03:24.367Z,-0.73
2023-01-27T03:08:26.112Z,-0.89
2023-01-27T03:13:28.883Z,-0.63
2023-01-27T03:18:30.555Z,-0.59
2023-01-27T03:23:36.232Z,-0.60
2023-01-27T03:28:38.989Z,-0.58
2023-01-27T03:33:47.740Z,-0.52
2023-01-27T03:39:20.839Z,-0.45
2023-01-27T03:44:41.436Z,-0.47
2023-01-27T03:49:43.141Z,-0.55
2023-01-27T03:54:44.871Z,-0.58
2023-01-27T03:59:46.695Z,-0.55
2023-01-27T04:05:07.288Z,-0.60
2023-01-27T04:10:10.032Z,-0.63
2023-01-27T04:15:12.114Z,-0.64
2023-01-27T04:20:14.174Z,-0.65
2023-01-27T04:25:16.255Z,-0.66
2023-01-27T04:30:18.309Z,-0.70
2023-01-27T04:35:23.345Z,-0.74
2023-01-27T04:40:27.325Z,-0.77
2023-01-27T04:45:29.174Z,-0.79
2023-01-27T04:50:31.191Z,-0.81
2023-01-27T04:55:33.126Z,-0.82
2023-01-27T05:00:34.878Z,-0.81
2023-01-27T05:05:37.971Z,-0.86
2023-01-27T05:10:39.692Z,-0.89
2023-01-27T05:15:41.509Z,-0.89
2023-01-27T05:20:43.291Z,-0.88
2023-01-27T05:25:45.336Z,-0.92
2023-01-27T05:30:47.176Z,-0.98
2023-01-27T05:35:48.889Z,-1.03
2023-01-27T05:40:55.366Z,-1.01
2023-01-27T05:46:18.981Z,-1.01
2023-01-27T05:51:22.853Z,-1.02
2023-01-27T05:56:26.570Z,-1.03
2023-01-27T06:01:31.145Z,-1.03
2023-01-27T06:06:34.088Z,-1.04
2023-01-27T06:11:35.859Z,-1.09
2023-01-27T06:16:37.619Z,-1.11
2023-01-27T06:21:39.449Z,-1.10
2023-01-27T06:26:41.226Z,-1.14
2023-01-27T06:31:42.963Z,-1.19
2023-01-27T06:36:44.960Z,-1.20
2023-01-27T06:41:46.635Z,-1.21
2023-01-27T06:46:48.561Z,-1.22
2023-01-27T06:51:50.257Z,-1.25
2023-01-27T06:56:52.108Z,-1.24
2023-01-27T07:01:53.855Z,-1.25
2023-01-27T07:06:55.992Z,-1.25
2023-01-27T07:11:57.765Z,-1.27
2023-01-27T07:16:59.504Z,-1.27
2023-01-27T07:22:01.320Z,-1.25
2023-01-27T07:27:03.301Z,-1.24
2023-01-27T07:32:05.211Z,-1.22
2023-01-27T07:37:07.513Z,-1.18
2023-01-27T07:42:10.243Z,-1.14
2023-01-27T07:47:12.052Z,-1.09
2023-01-27T07:52:13.763Z,-1.09
2023-01-27T07:57:15.604Z,-1.03
2023-01-27T08:02:17.583Z,-0.91
2023-01-27T08:07:19.565Z,-0.79
2023-01-27T08:12:21.216Z,-0.76
2023-01-27T08:17:22.879Z,-0.75
2023-01-27T08:22:24.753Z,-0.64
2023-01-27T08:27:26.630Z,-0.54
2023-01-27T08:32:28.306Z,-0.55
2023-01-27T08:37:30.088Z,-0.59
2023-01-27T08:42:31.801Z,-0.64
2023-01-27T08:47:33.536Z,-0.61
2023-01-27T08:52:35.866Z,-0.56
2023-01-27T08:57:37.866Z,-0.54
2023-01-27T09:02:39.899Z,-0.54
2023-01-27T09:07:41.682Z,-0.50
2023-01-27T09:12:44.676Z,-0.47
2023-01-27T09:17:47.215Z,-0.42
2023-01-27T09:22:49.434Z,-0.37
2023-01-27T09:27:59.475Z,-0.36
2023-01-27T09:33:01.700Z,-0.35
2023-01-27T09:38:06.681Z,-0.45
2023-01-27T09:43:08.248Z,-0.57
2023-01-27T09:48:27.327Z,-0.71
2023-01-27T09:53:38.241Z,-0.76
2023-01-27T09:58:54.752Z,-0.83
2023-01-27T10:04:32.235Z,-0.88
2023-01-27T10:09:54.276Z,-0.86
2023-01-27T10:15:33.332Z,-0.81
2023-01-27T10:20:55.653Z,-0.85
2023-01-27T10:26:02.353Z,-0.93
2023-01-27T10:31:27.130Z,-0.90
2023-01-27T10:36:36.478Z,-0.79
2023-01-27T10:41:44.869Z,-0.75
2023-01-27T10:47:35.072Z,-0.40
2023-01-27T10:52:45.202Z,-0.15
2023-01-27T10:58:10.786Z,-0.09
2023-01-27T11:03:21.487Z,-0.13
2023-01-27T11:08:28.283Z,-0.20
2023-01-27T11:13:32.199Z,-0.12
2023-01-27T11:18:38.155Z,-0.16
2023-01-27T11:23:49.027Z,-0.16
2023-01-27T11:29:00.658Z,-0.25
2023-01-27T11:34:21.089Z,-0.23
2023-01-27T11:39:23.595Z,-0.25
2023-01-27T11:44:29.297Z,-0.27
2023-01-27T11:49:35.474Z,-0.28
2023-01-27T11:54:43.571Z,-0.23
2023-01-27T11:59:46.176Z,-0.15
2023-01-27T12:05:04.114Z,-0.15
2023-01-27T12:10:24.679Z,-0.25
2023-01-27T12:15:30.070Z,-0.10
2023-01-27T12:20:36.022Z,0.11
2023-01-27T12:25:45.634Z,0.31
2023-01-27T12:30:48.092Z,0.40
2023-01-27T12:35:50.899Z,0.42
2023-01-27T12:41:05.312Z,0.43
2023-01-27T12:46:13.281Z,0.45
2023-01-27T12:51:16.449Z,0.44
2023-01-27T12:56:22.390Z,0.37
2023-01-27T13:01:24.751Z,0.30
2023-01-27T13:06:39.436Z,0.21
2023-01-27T13:11:41.303Z,0.19
2023-01-27T13:16:52.941Z,0.23
2023-01-27T13:21:55.321Z,0.24
2023-01-27T13:26:57.914Z,0.21
2023-01-27T13:32:23.636Z,0.15
2023-01-27T13:37:48.556Z,0.10
2023-01-27T13:43:03.138Z,0.07
2023-01-27T13:48:08.601Z,0.07
2023-01-27T13:53:12.857Z,0.06
2023-01-27T13:58:31.585Z,0.05
2023-01-27T14:03:52.181Z,0.06
2023-01-27T14:09:03.195Z,0.06
2023-01-27T14:14:07.740Z,0.03
2023-01-27T14:19:21.502Z,-0.04
2023-01-27T14:24:45.136Z,-0.10
2023-01-27T14:30:05.548Z,-0.09
2023-01-27T14:35:27.710Z,-0.09
2023-01-27T14:40:46.175Z,-0.08
2023-01-27T14:45:56.485Z,-0.12
2023-01-27T14:51:13.288Z,-0.18
2023-01-27T14:56:30.752Z,-0.24
2023-01-27T15:01:55.129Z,-0.25
2023-01-27T15:07:16.373Z,-0.21
2023-01-27T15:12:18.141Z,-0.19
2023-01-27T15:17:41.236Z,-0.23
2023-01-27T15:23:12.384Z,-0.28
2023-01-27T15:28:18.174Z,-0.33
2023-01-27T15:33:48.659Z,-0.30
2023-01-27T15:38:59.847Z,-0.28
2023-01-27T15:44:32.389Z,-0.28
2023-01-27T15:49:43.071Z,-0.33
2023-01-27T15:54:50.224Z,-0.37
2023-01-27T15:59:59.092Z,-0.40
2023-01-27T16:05:27.437Z,-0.40
2023-01-27T16:10:34.247Z,-0.36
2023-01-27T16:15:37.015Z,-0.32
2023-01-27T16:20:41.775Z,-0.32
2023-01-27T16:25:50.850Z,-0.53
2023-01-27T16:31:01.726Z,-0.40
2023-01-27T16:36:31.326Z,-0.44
2023-01-27T16:41:39.060Z,-0.48
2023-01-27T16:46:55.639Z,-0.50
2023-01-27T16:52:01.719Z,-0.49
2023-01-27T16:57:27.062Z,-0.41
2023-01-27T17:02:32.082Z,-0.42
2023-01-27T17:07:34.744Z,-0.47
2023-01-27T17:12:43.161Z,-0.50
2023-01-27T17:17:45.366Z,-0.51
2023-01-27T17:22:53.060Z,-0.50
2023-01-27T17:27:56.043Z,-0.44
2023-01-27T17:33:00.324Z,-0.43
2023-01-27T17:38:14.244Z,-0.43
2023-01-27T17:43:34.434Z,-0.48
2023-01-27T17:48:40.995Z,-0.52
2023-01-27T17:53:43.114Z,-0.49
2023-01-27T17:58:46.565Z,-0.45
2023-01-27T18:03:53.869Z,-0.42
2023-01-27T18:08:57.918Z,-0.45
2023-01-27T18:14:07.666Z,-0.48
2023-01-27T18:19:22.412Z,-0.52
2023-01-27T18:24:24.479Z,-0.49
2023-01-27T18:29:47.122Z,-0.49
2023-01-27T18:34:50.189Z,-0.49
2023-01-27T18:39:52.202Z,-0.50
2023-01-27T18:44:55.170Z,-0.54
2023-01-27T18:50:20.023Z,-0.55
2023-01-27T18:55:27.432Z,-0.51
2023-01-27T19:00:36.182Z,-0.47
2023-01-27T19:05:38.021Z,-0.46
2023-01-27T19:10:39.830Z,-0.50
2023-01-27T19:15:50.267Z,-0.56
2023-01-27T19:20:52.260Z,-0.56
2023-01-27T19:25:56.841Z,-0.59
2023-01-27T19:30:59.321Z,-0.63
2023-01-27T19:36:12.675Z,-0.69
2023-01-27T19:41:15.083Z,-0.74
2023-01-27T19:46:22.515Z,-0.72
2023-01-27T19:51:24.638Z,-0.69
2023-01-27T19:56:30.796Z,-0.70
2023-01-27T20:01:32.840Z,-0.76
2023-01-27T20:06:34.728Z,-0.80
2023-01-27T20:11:41.982Z,-0.78
2023-01-27T20:16:43.917Z,-0.76
2023-01-27T20:21:46.808Z,-0.76
2023-01-27T20:26:48.905Z,-0.80
2023-01-27T20:31:52.130Z,-0.84
2023-01-27T20:36:54.389Z,-0.84
2023-01-27T20:41:56.371Z,-0.82
2023-01-27T20:46:58.254Z,-0.80
2023-01-27T20:52:00.128Z,-0.80
2023-01-27T20:57:01.861Z,-0.83
2023-01-27T21:02:03.752Z,-0.82
2023-01-27T21:07:06.127Z,-0.80
2023-01-27T21:12:07.958Z,-0.79
2023-01-27T21:17:09.929Z,-0.79
2023-01-27T21:22:11.661Z,-0.82
2023-01-27T21:27:13.398Z,-0.84
2023-01-27T21:32:15.057Z,-0.82
2023-01-27T21:37:16.844Z,-0.77
2023-01-27T21:42:18.701Z,-0.74
2023-01-27T21:47:20.500Z,-0.75
2023-01-27T21:52:23.706Z,-0.79
2023-01-27T21:57:25.414Z,-0.82
2023-01-27T22:02:29.380Z,-0.82
2023-01-27T22:07:34.336Z,-0.76
2023-01-27T22:12:39.409Z,-0.72
2023-01-27T22:17:41.169Z,-0.73
2023-01-27T22:22:44.557Z,-0.76
2023-01-27T22:27:48.899Z,-0.79
2023-01-27T22:32:50.920Z,-0.80
2023-01-27T22:37:53.151Z,-0.78
2023-01-27T22:42:55.065Z,-0.77
2023-01-27T22:47:57.744Z,-0.78
2023-01-27T22:52:59.400Z,-0.80
2023-01-27T22:58:01.071Z,-0.83
2023-01-27T23:03:02.768Z,-0.82
2023-01-27T23:08:04.753Z,-0.78
2023-01-27T23:13:06.888Z,-0.77
2023-01-27T23:18:11.431Z,-0.77
2023-01-27T23:23:14.890Z,-0.80
2023-01-27T23:28:18.180Z,-0.81
2023-01-27T23:33:20.752Z,-0.76
2023-01-27T23:38:32.060Z,-0.71
2023-01-27T23:43:34.972Z,-0.67
2023-01-27T23:48:36.949Z,-0.69
2023-01-27T23:53:38.755Z,-0.75
2023-01-27T23:58:40.481Z,-0.78
